Observation data for Morton on 07/18/2019      Previous  Date  Next       Current Mesonet Observations  Soil Data  Daily Summary Page  Observations in Plain Language
KMNS 180500Z 18009KT 26/14 A2998 RMK A01 T02550141  RH  051%=      5-min Rain = 0
KMNS 180505Z 18008KT 25/14 A2998 RMK A01 T02520141  RH  052%=      5-min Rain = 0
KMNS 180510Z 18008KT 25/14 A2998 RMK A01 T02510141  RH  053%=      5-min Rain = 0
KMNS 180515Z 18008KT 25/14 A2998 RMK A01 T02490141  RH  053%=      5-min Rain = 0
KMNS 180520Z 18008KT 25/14 A2999 RMK A01 T02480141  RH  054%=      5-min Rain = 0
KMNS 180525Z 19009KT 25/14 A2999 RMK A01 T02470141  RH  054%=      5-min Rain = 0
KMNS 180530Z 20010G15KT 25/14 A2999 RMK A01 T02460141  RH  054%=      5-min Rain = 0
KMNS 180535Z 19010KT 25/14 A2999 RMK A01 T02470141  RH  054%=      5-min Rain = 0
KMNS 180540Z 18011KT 25/14 A2999 RMK A01 T02470141  RH  054%=      5-min Rain = 0
KMNS 180545Z 19010KT 25/14 A2999 RMK A01 T02460141  RH  054%=      5-min Rain = 0
KMNS 180550Z 18011KT 25/14 A2999 RMK A01 T02460141  RH  054%=      5-min Rain = 0
KMNS 180555Z 19008KT 25/14 A30 RMK A01 T02450140  RH  054%=      5-min Rain = 0
KMNS 180600Z 19009KT 24/14 A30 RMK A01 T02430140  RH  055%=      5-min Rain = 0
KMNS 180605Z 19008KT 24/14 A30 RMK A01 T02420140  RH  055%=      5-min Rain = 0
KMNS 180610Z 19009KT 24/14 A3001 RMK A01 T02410139  RH  055%=      5-min Rain = 0
KMNS 180615Z 20008KT 24/14 A3001 RMK A01 T02410139  RH  055%=      5-min Rain = 0
KMNS 180620Z 20008KT 24/14 A3001 RMK A01 T02400138  RH  055%=      5-min Rain = 0
KMNS 180625Z 19007KT 24/14 A3001 RMK A01 T02390138  RH  055%=      5-min Rain = 0
KMNS 180630Z 19008KT 24/14 A3001 RMK A01 T02380138  RH  056%=      5-min Rain = 0
KMNS 180635Z 20008KT 24/14 A3001 RMK A01 T02380138  RH  056%=      5-min Rain = 0
KMNS 180640Z 20008KT 24/14 A3001 RMK A01 T02380138  RH  056%=      5-min Rain = 0
KMNS 180645Z 20007KT 24/14 A3001 RMK A01 T02360139  RH  057%=      5-min Rain = 0
KMNS 180650Z 20007KT 23/14 A3002 RMK A01 T02340139  RH  057%=      5-min Rain = 0
KMNS 180655Z 20006KT 23/14 A3002 RMK A01 T02340140  RH  058%=      5-min Rain = 0
KMNS 180700Z 20006KT 23/14 A3001 RMK A01 T02330140  RH  058%=      5-min Rain = 0
KMNS 180705Z 20007KT 23/14 A3002 RMK A01 T02320141  RH  059%=      5-min Rain = 0
KMNS 180710Z 20007KT 23/14 A3002 RMK A01 T02340142  RH  059%=      5-min Rain = 0
KMNS 180715Z 20008KT 23/14 A3002 RMK A01 T02340142  RH  059%=      5-min Rain = 0
KMNS 180720Z 20008KT 24/14 A3002 RMK A01 T02350143  RH  059%=      5-min Rain = 0
KMNS 180725Z 20007KT 24/14 A3002 RMK A01 T02350144  RH  059%=      5-min Rain = 0
KMNS 180730Z 20007KT 24/14 A3002 RMK A01 T02350144  RH  059%=      5-min Rain = 0
KMNS 180735Z 20007KT 23/14 A3002 RMK A01 T02340144  RH  060%=      5-min Rain = 0
KMNS 180740Z 20007KT 23/15 A3002 RMK A01 T02320145  RH  060%=      5-min Rain = 0
KMNS 180745Z 20007KT 23/15 A3002 RMK A01 T02310145  RH  061%=      5-min Rain = 0
KMNS 180750Z 19008KT 23/15 A3002 RMK A01 T02320145  RH  061%=      5-min Rain = 0
KMNS 180755Z 19007KT 23/15 A3001 RMK A01 T02310145  RH  061%=      5-min Rain = 0
KMNS 180800Z 20008KT 23/15 A3001 RMK A01 T02310146  RH  061%=      5-min Rain = 0
KMNS 180805Z 19008KT 23/15 A3001 RMK A01 T02320146  RH  061%=      5-min Rain = 0
KMNS 180810Z 19008KT 23/15 A3001 RMK A01 T02320147  RH  061%=      5-min Rain = 0
KMNS 180815Z 19009KT 23/15 A3001 RMK A01 T02310147  RH  062%=      5-min Rain = 0
KMNS 180820Z 19010KT 23/15 A3001 RMK A01 T02320148  RH  062%=      5-min Rain = 0
KMNS 180825Z 18010KT 23/15 A3001 RMK A01 T02330148  RH  062%=      5-min Rain = 0
KMNS 180830Z 19010KT 23/15 A3001 RMK A01 T02330149  RH  062%=      5-min Rain = 0
KMNS 180835Z 19011KT 23/15 A3001 RMK A01 T02330149  RH  062%=      5-min Rain = 0
KMNS 180840Z 19010KT 23/15 A3001 RMK A01 T02320150  RH  063%=      5-min Rain = 0
KMNS 180845Z 19010KT 23/15 A3001 RMK A01 T02310150  RH  063%=      5-min Rain = 0
KMNS 180850Z 18010KT 23/15 A3001 RMK A01 T02300150  RH  064%=      5-min Rain = 0
KMNS 180855Z 18010KT 23/15 A30 RMK A01 T02290150  RH  064%=      5-min Rain = 0
KMNS 180900Z 18010KT 23/15 A30 RMK A01 T02280151  RH  064%=      5-min Rain = 0
KMNS 180905Z 18010KT 23/15 A30 RMK A01 T02280151  RH  065%=      5-min Rain = 0
KMNS 180910Z 19010KT 23/15 A30 RMK A01 T02280152  RH  065%=      5-min Rain = 0
KMNS 180915Z 18010KT 23/15 A30 RMK A01 T02280152  RH  065%=      5-min Rain = 0
KMNS 180920Z 18011KT 23/15 A30 RMK A01 T02280152  RH  065%=      5-min Rain = 0
KMNS 180925Z 18010KT 23/15 A30 RMK A01 T02270152  RH  066%=      5-min Rain = 0
KMNS 180930Z 18010KT 23/15 A30 RMK A01 T02260153  RH  066%=      5-min Rain = 0
KMNS 180935Z 18010KT 23/15 A30 RMK A01 T02250153  RH  067%=      5-min Rain = 0
KMNS 180940Z 18009KT 22/15 A30 RMK A01 T02240153  RH  067%=      5-min Rain = 0
KMNS 180945Z 18009KT 22/15 A30 RMK A01 T02230153  RH  068%=      5-min Rain = 0
KMNS 180950Z 18009KT 22/15 A30 RMK A01 T02220153  RH  068%=      5-min Rain = 0
KMNS 180955Z 18009KT 22/15 A30 RMK A01 T02210153  RH  068%=      5-min Rain = 0
KMNS 181000Z 17009KT 22/15 A30 RMK A01 T02210153  RH  069%=      5-min Rain = 0
KMNS 181005Z 18009KT 22/15 A30 RMK A01 T02200153  RH  069%=      5-min Rain = 0
KMNS 181010Z 18009KT 22/15 A30 RMK A01 T02200154  RH  069%=      5-min Rain = 0
KMNS 181015Z 18008KT 22/15 A30 RMK A01 T02190154  RH  069%=      5-min Rain = 0
KMNS 181020Z 17008KT 22/15 A30 RMK A01 T02190154  RH  070%=      5-min Rain = 0
KMNS 181025Z 18007KT 22/15 A30 RMK A01 T02180154  RH  070%=      5-min Rain = 0
KMNS 181030Z 18008KT 22/15 A30 RMK A01 T02160154  RH  071%=      5-min Rain = 0
KMNS 181035Z 18008KT 22/15 A30 RMK A01 T02160154  RH  071%=      5-min Rain = 0
KMNS 181040Z 18008KT 21/15 A30 RMK A01 T02140154  RH  072%=      5-min Rain = 0
KMNS 181045Z 18008KT 21/15 A30 RMK A01 T02140154  RH  072%=      5-min Rain = 0
KMNS 181050Z 18008KT 21/16 A30 RMK A01 T02140155  RH  072%=      5-min Rain = 0
KMNS 181055Z 18009KT 21/16 A30 RMK A01 T02140155  RH  072%=      5-min Rain = 0
KMNS 181100Z 17009KT 22/16 A30 RMK A01 T02150155  RH  072%=      5-min Rain = 0
KMNS 181105Z 17009KT 22/16 A2999 RMK A01 T02150155  RH  072%=      5-min Rain = 0
KMNS 181110Z 17010KT 21/16 A2999 RMK A01 T02140155  RH  072%=      5-min Rain = 0
KMNS 181115Z 17010KT 21/16 A2999 RMK A01 T02140155  RH  072%=      5-min Rain = 0
KMNS 181120Z 17010G15KT 21/16 A2999 RMK A01 T02140155  RH  072%=      5-min Rain = 0
KMNS 181125Z 16009KT 21/16 A2999 RMK A01 T02140155  RH  073%=      5-min Rain = 0
KMNS 181130Z 17010KT 21/16 A2999 RMK A01 T02140155  RH  073%=      5-min Rain = 0
KMNS 181135Z 17009KT 21/16 A2999 RMK A01 T02130155  RH  073%=      5-min Rain = 0
KMNS 181140Z 16011KT 21/16 A2999 RMK A01 T02130156  RH  073%=      5-min Rain = 0
KMNS 181145Z 16010KT 21/16 A2999 RMK A01 T02130156  RH  073%=      5-min Rain = 0
KMNS 181200Z 17011KT 21/16 A2999 RMK A01 T02140156  RH  073%=      5-min Rain = 0
KMNS 181205Z 17010KT 22/16 A2999 RMK A01 T02150156  RH  072%=      5-min Rain = 0
KMNS 181210Z 17010KT 22/16 A2999 RMK A01 T02150156  RH  072%=      5-min Rain = 0
KMNS 181215Z 17010KT 22/16 A2999 RMK A01 T02150155  RH  072%=      5-min Rain = 0
KMNS 181220Z 17010KT 22/16 A2999 RMK A01 T02150155  RH  072%=      5-min Rain = 0
KMNS 181225Z 17010KT 22/16 A2999 RMK A01 T02160155  RH  072%=      5-min Rain = 0
KMNS 181230Z 17010KT 22/16 A2999 RMK A01 T02160156  RH  072%=      5-min Rain = 0
KMNS 181235Z 17011G16KT 22/16 A2999 RMK A01 T02170156  RH  071%=      5-min Rain = 0
KMNS 181240Z 17010G15KT 22/16 A30 RMK A01 T02180156  RH  071%=      5-min Rain = 0
KMNS 181245Z 17010KT 22/16 A2999 RMK A01 T02200156  RH  070%=      5-min Rain = 0
KMNS 181250Z 17009KT 22/16 A2999 RMK A01 T02210156  RH  070%=      5-min Rain = 0
KMNS 181255Z 17011KT 22/16 A2999 RMK A01 T02220155  RH  069%=      5-min Rain = 0
KMNS 181300Z 18011KT 22/16 A30 RMK A01 T02240155  RH  068%=      5-min Rain = 0
KMNS 181305Z 17011KT 23/15 A30 RMK A01 T02260153  RH  066%=      5-min Rain = 0
KMNS 181310Z 17012G17KT 23/15 A30 RMK A01 T02290150  RH  064%=      5-min Rain = 0
KMNS 181315Z 18013G18KT 23/15 A30 RMK A01 T02310148  RH  062%=      5-min Rain = 0
KMNS 181320Z 18013KT 23/15 A30 RMK A01 T02330147  RH  061%=      5-min Rain = 0
KMNS 181325Z 18011G17KT 24/15 A30 RMK A01 T02360148  RH  060%=      5-min Rain = 0
KMNS 181330Z 18012KT 24/15 A30 RMK A01 T02380147  RH  059%=      5-min Rain = 0
KMNS 181335Z 18014G20KT 24/15 A30 RMK A01 T02410146  RH  058%=      5-min Rain = 0
KMNS 181340Z 19014KT 24/15 A30 RMK A01 T02440147  RH  057%=      5-min Rain = 0
KMNS 181345Z 18014G19KT 25/15 A30 RMK A01 T02460147  RH  056%=      5-min Rain = 0
KMNS 181350Z 18014G19KT 25/15 A30 RMK A01 T02480145  RH  055%=      5-min Rain = 0
KMNS 181355Z 19015KT 25/15 A30 RMK A01 T02520146  RH  054%=      5-min Rain = 0
KMNS 181400Z 19012G17KT 26/15 A30 RMK A01 T02560146  RH  053%=      5-min Rain = 0
KMNS 181405Z 19017KT 26/14 A30 RMK A01 T02560143  RH  052%=      5-min Rain = 0
KMNS 181410Z 19016KT 26/14 A30 RMK A01 T02580143  RH  051%=      5-min Rain = 0
KMNS 181415Z 19015G20KT 26/14 A30 RMK A01 T02610144  RH  051%=      5-min Rain = 0
KMNS 181420Z 19013G19KT 27/15 A30 RMK A01 T02660145  RH  049%=      5-min Rain = 0
KMNS 181425Z 19017G22KT 27/14 A30 RMK A01 T02670141  RH  048%=      5-min Rain = 0
KMNS 181430Z 19015G20KT 27/14 A30 RMK A01 T02710143  RH  047%=      5-min Rain = 0
KMNS 181435Z 20015G21KT 27/14 A30 RMK A01 T02740142  RH  046%=      5-min Rain = 0
KMNS 181440Z 20016G21KT 27/14 A30 RMK A01 T02740141  RH  046%=      5-min Rain = 0
KMNS 181445Z 19016G21KT 28/14 A30 RMK A01 T02760140  RH  045%=      5-min Rain = 0
KMNS 181450Z 20014G19KT 28/14 A30 RMK A01 T02780143  RH  045%=      5-min Rain = 0
KMNS 181455Z 21015KT 28/14 A30 RMK A01 T02820141  RH  044%=      5-min Rain = 0
KMNS 181500Z 20015KT 28/14 A30 RMK A01 T02820141  RH  044%=      5-min Rain = 0
KMNS 181505Z 19014KT 29/14 A30 RMK A01 T02860140  RH  043%=      5-min Rain = 0
KMNS 181510Z 20014G19KT 29/14 A2999 RMK A01 T02900141  RH  042%=      5-min Rain = 0
KMNS 181515Z 20014G19KT 29/14 A2999 RMK A01 T02900140  RH  042%=      5-min Rain = 0
KMNS 181520Z 19014KT 29/14 A2999 RMK A01 T02930141  RH  041%=      5-min Rain = 0
KMNS 181525Z 19014KT 29/14 A2999 RMK A01 T02930140  RH  041%=      5-min Rain = 0
KMNS 181530Z 20014G19KT 30/14 A2999 RMK A01 T02960140  RH  040%=      5-min Rain = 0
KMNS 181535Z 20015KT 30/14 A2999 RMK A01 T02970138  RH  039%=      5-min Rain = 0
KMNS 181540Z 20016KT 30/14 A2999 RMK A01 T02980138  RH  039%=      5-min Rain = 0
KMNS 181545Z 20016KT 30/14 A2999 RMK A01 T02990139  RH  039%=      5-min Rain = 0
KMNS 181550Z 20014KT 31/14 A2999 RMK A01 T03060140  RH  038%=      5-min Rain = 0
KMNS 181555Z 20015G20KT 31/14 A2999 RMK A01 T03080138  RH  037%=      5-min Rain = 0
KMNS 181600Z 20014G20KT 31/14 A2999 RMK A01 T03120137  RH  036%=      5-min Rain = 0
KMNS 181605Z 21015KT 31/13 A2999 RMK A01 T03130133  RH  035%=      5-min Rain = 0
KMNS 181610Z 21015KT 31/13 A2999 RMK A01 T03130133  RH  035%=      5-min Rain = 0
KMNS 181615Z 21014G19KT 32/13 A2999 RMK A01 T03160131  RH  034%=      5-min Rain = 0
KMNS 181620Z 20015KT 32/13 A2999 RMK A01 T03170131  RH  034%=      5-min Rain = 0
KMNS 181625Z 21013G21KT 32/13 A2999 RMK A01 T03240132  RH  033%=      5-min Rain = 0
KMNS 181630Z 21015G20KT 32/13 A2999 RMK A01 T03220130  RH  032%=      5-min Rain = 0
KMNS 181635Z 20014KT 32/13 A2999 RMK A01 T03230131  RH  032%=      5-min Rain = 0
KMNS 181640Z 21014KT 33/13 A2999 RMK A01 T03270131  RH  032%=      5-min Rain = 0
KMNS 181645Z 20012G19KT 33/13 A2998 RMK A01 T03260131  RH  032%=      5-min Rain = 0
KMNS 181650Z 21013KT 33/13 A2998 RMK A01 T03270130  RH  031%=      5-min Rain = 0
KMNS 181655Z 20015G21KT 33/13 A2998 RMK A01 T03310131  RH  031%=      5-min Rain = 0
KMNS 181700Z 20014G20KT 33/13 A2998 RMK A01 T03330130  RH  030%=      5-min Rain = 0
KMNS 181705Z 20012G18KT 34/13 A2998 RMK A01 T03380132  RH  030%=      5-min Rain = 0
KMNS 181710Z 20015KT 34/12 A2998 RMK A01 T03400124  RH  028%=      5-min Rain = 0
KMNS 181715Z 19011KT 34/13 A2998 RMK A01 T03430127  RH  028%=      5-min Rain = 0
KMNS 181720Z 19013G19KT 35/13 A2998 RMK A01 T03480129  RH  028%=      5-min Rain = 0
KMNS 181725Z 19013G18KT 34/13 A2998 RMK A01 T03430127  RH  028%=      5-min Rain = 0
KMNS 181730Z 19013KT 34/13 A2998 RMK A01 T03430125  RH  028%=      5-min Rain = 0
KMNS 181735Z 20013G18KT 35/13 A2998 RMK A01 T03450127  RH  028%=      5-min Rain = 0
KMNS 181740Z 18015G22KT 35/13 A2997 RMK A01 T03460126  RH  028%=      5-min Rain = 0
KMNS 181745Z 19014KT 35/13 A2997 RMK A01 T03460127  RH  028%=      5-min Rain = 0
KMNS 181750Z 21014G19KT 35/12 A2997 RMK A01 T03500121  RH  026%=      5-min Rain = 0
KMNS 181755Z 20011G18KT 35/12 A2997 RMK A01 T03520119  RH  025%=      5-min Rain = 0
KMNS 181800Z 22012G18KT 35/11 A2997 RMK A01 T03500114  RH  025%=      5-min Rain = 0
KMNS 181805Z 22009KT 36/12 A2997 RMK A01 T03560118  RH  025%=      5-min Rain = 0
KMNS 181810Z 19012G19KT 36/12 A2996 RMK A01 T03600117  RH  024%=      5-min Rain = 0
KMNS 181815Z 19014G20KT 36/12 A2996 RMK A01 T03580116  RH  024%=      5-min Rain = 0
KMNS 181820Z 19014KT 36/11 A2996 RMK A01 T03590110  RH  023%=      5-min Rain = 0
KMNS 181825Z 19014G19KT 36/11 A2996 RMK A01 T03590113  RH  023%=      5-min Rain = 0
KMNS 181830Z 19014G20KT 36/12 A2996 RMK A01 T03600115  RH  024%=      5-min Rain = 0
KMNS 181835Z 19013G18KT 36/12 A2995 RMK A01 T03620115  RH  023%=      5-min Rain = 0
KMNS 181840Z 19013KT 36/11 A2995 RMK A01 T03640113  RH  023%=      5-min Rain = 0
KMNS 181845Z 20011G17KT 37/11 A2995 RMK A01 T03670111  RH  022%=      5-min Rain = 0
KMNS 181850Z 22012KT 37/11 A2995 RMK A01 T03660108  RH  022%=      5-min Rain = 0
KMNS 181855Z 21013G21KT 37/11 A2995 RMK A01 T03650109  RH  022%=      5-min Rain = 0
KMNS 181900Z 21014G21KT 37/10 A2995 RMK A01 T03670104  RH  021%=      5-min Rain = 0
KMNS 181905Z 20013KT 37/10 A2995 RMK A01 T03680104  RH  021%=      5-min Rain = 0
KMNS 181910Z 20013KT 37/10 A2995 RMK A01 T03700104  RH  021%=      5-min Rain = 0
KMNS 181915Z 20011G16KT 38/11 A2994 RMK A01 T03760108  RH  021%=      5-min Rain = 0
KMNS 181920Z 19014G20KT 37/11 A2994 RMK A01 T03720105  RH  021%=      5-min Rain = 0
KMNS 181925Z 19015KT 38/10 A2994 RMK A01 T03760103  RH  020%=      5-min Rain = 0
KMNS 181930Z 19012G17KT 38/10 A2994 RMK A01 T03770104  RH  020%=      5-min Rain = 0
KMNS 181935Z 21014G19KT 38/10 A2994 RMK A01 T03770103  RH  020%=      5-min Rain = 0
KMNS 181940Z 21015G21KT 37/10 A2994 RMK A01 T03740101  RH  020%=      5-min Rain = 0
KMNS 181945Z 20012G18KT 38/10 A2994 RMK A01 T03760101  RH  020%=      5-min Rain = 0
KMNS 181950Z 18011G20KT 38/10 A2994 RMK A01 T03770103  RH  020%=      5-min Rain = 0
KMNS 181955Z 19013G24KT 38/10 A2993 RMK A01 T03780102  RH  020%=      5-min Rain = 0
KMNS 182000Z 20013G19KT 38/10 A2993 RMK A01 T03800103  RH  020%=      5-min Rain = 0
KMNS 182005Z 20014G19KT 38/10 A2993 RMK A01 T03780100  RH  019%=      5-min Rain = 0
KMNS 182010Z 20014G22KT 38/10 A2993 RMK A01 T03810102  RH  019%=      5-min Rain = 0
KMNS 182015Z 17015G20KT 38/10 A2993 RMK A01 T03840098  RH  019%=      5-min Rain = 0
KMNS 182020Z 18014KT 38/10 A2993 RMK A01 T03820100  RH  019%=      5-min Rain = 0
KMNS 182025Z 17015KT 38/10 A2992 RMK A01 T03830100  RH  019%=      5-min Rain = 0
KMNS 182030Z 18014KT 38/10 A2992 RMK A01 T03800099  RH  019%=      5-min Rain = 0
KMNS 182035Z 19016G21KT 39/10 A2992 RMK A01 T03850100  RH  019%=      5-min Rain = 0
KMNS 182040Z 20014KT 38/10 A2992 RMK A01 T03830097  RH  018%=      5-min Rain = 0
KMNS 182045Z 19014G19KT 39/10 A2992 RMK A01 T03870096  RH  018%=      5-min Rain = 0
KMNS 182050Z 19012G17KT 39/10 A2992 RMK A01 T03870096  RH  018%=      5-min Rain = 0
KMNS 182055Z 18013G20KT 39/09 A2992 RMK A01 T03890094  RH  018%=      5-min Rain = 0
KMNS 182100Z 19013G20KT 39/09 A2992 RMK A01 T03860092  RH  018%=      5-min Rain = 0
KMNS 182105Z 18014KT 38/09 A2992 RMK A01 T03840088  RH  017%=      5-min Rain = 0
KMNS 182110Z 19016G21KT 39/09 A2992 RMK A01 T03850090  RH  017%=      5-min Rain = 0
KMNS 182115Z 19015G21KT 38/09 A2991 RMK A01 T03840087  RH  017%=      5-min Rain = 0
KMNS 182120Z 17015G23KT 39/09 A2991 RMK A01 T03860091  RH  017%=      5-min Rain = 0
KMNS 182125Z 17015G22KT 39/09 A2991 RMK A01 T03860090  RH  017%=      5-min Rain = 0
KMNS 182130Z 18016G22KT 39/09 A2991 RMK A01 T03860092  RH  018%=      5-min Rain = 0
KMNS 182135Z 18011G16KT 39/09 A2991 RMK A01 T03850093  RH  018%=      5-min Rain = 0
KMNS 182140Z 19014G21KT 39/09 A299 RMK A01 T03880090  RH  017%=      5-min Rain = 0
KMNS 182145Z 19013KT 39/09 A299 RMK A01 T03870094  RH  018%=      5-min Rain = 0
KMNS 182150Z 17011G18KT 39/09 A299 RMK A01 T03850093  RH  018%=      5-min Rain = 0
KMNS 182155Z 18014G21KT 39/10 A299 RMK A01 T03870095  RH  018%=      5-min Rain = 0
KMNS 182200Z 19013G18KT 39/10 A299 RMK A01 T03870095  RH  018%=      5-min Rain = 0
KMNS 182205Z 19013G18KT 39/10 A299 RMK A01 T03850098  RH  018%=      5-min Rain = 0
KMNS 182210Z 17010G15KT 39/10 A299 RMK A01 T03860096  RH  018%=      5-min Rain = 0
KMNS 182215Z 19013G21KT 39/10 A299 RMK A01 T03900100  RH  018%=      5-min Rain = 0
KMNS 182220Z 20014G22KT 38/10 A299 RMK A01 T03840098  RH  018%=      5-min Rain = 0
KMNS 182225Z 20013G18KT 39/10 A2989 RMK A01 T03870101  RH  019%=      5-min Rain = 0
KMNS 182230Z 19012G18KT 38/10 A2989 RMK A01 T03840100  RH  019%=      5-min Rain = 0
KMNS 182235Z 18011G16KT 39/10 A2989 RMK A01 T03850101  RH  019%=      5-min Rain = 0
KMNS 182240Z 19013G21KT 39/10 A2989 RMK A01 T03870101  RH  019%=      5-min Rain = 0
KMNS 182245Z 19013G18KT 39/10 A2989 RMK A01 T03850101  RH  019%=      5-min Rain = 0
KMNS 182250Z 20013G18KT 38/10 A2989 RMK A01 T03840100  RH  019%=      5-min Rain = 0
KMNS 182255Z 19013KT 38/10 A2989 RMK A01 T03840101  RH  019%=      5-min Rain = 0
KMNS 182300Z 20014KT 38/10 A2988 RMK A01 T03820099  RH  019%=      5-min Rain = 0
KMNS 182305Z 19012G18KT 38/10 A2988 RMK A01 T03820096  RH  018%=      5-min Rain = 0
KMNS 182310Z 18011G16KT 38/09 A2988 RMK A01 T03810094  RH  018%=      5-min Rain = 0
KMNS 182315Z 20012G17KT 38/10 A2988 RMK A01 T03810099  RH  019%=      5-min Rain = 0
KMNS 182320Z 19013G19KT 38/10 A2988 RMK A01 T03800100  RH  019%=      5-min Rain = 0
KMNS 182325Z 19013G19KT 38/10 A2988 RMK A01 T03790099  RH  019%=      5-min Rain = 0
KMNS 182330Z 19014KT 38/10 A2988 RMK A01 T03780099  RH  019%=      5-min Rain = 0
KMNS 182335Z 19012G17KT 38/10 A2988 RMK A01 T03780102  RH  020%=      5-min Rain = 0
KMNS 182340Z 18011G16KT 38/10 A2987 RMK A01 T03780101  RH  019%=      5-min Rain = 0
KMNS 182345Z 19013KT 38/10 A2987 RMK A01 T03760098  RH  019%=      5-min Rain = 0
KMNS 182350Z 19014KT 38/10 A2987 RMK A01 T03750096  RH  019%=      5-min Rain = 0
KMNS 182355Z 18014G19KT 37/10 A2987 RMK A01 T03730096  RH  019%=      5-min Rain = 0
KMNS 190000Z 18015G20KT 37/10 A2987 RMK A01 T03730100  RH  020%=      5-min Rain = 0
KMNS 190005Z 18013G19KT 37/10 A2987 RMK A01 T03710100  RH  020%=      5-min Rain = 0
KMNS 190010Z 17016G22KT 37/10 A2987 RMK A01 T03690100  RH  020%=      5-min Rain = 0
KMNS 190015Z 17015G20KT 37/10 A2987 RMK A01 T03680102  RH  021%=      5-min Rain = 0
KMNS 190020Z 18016KT 37/10 A2988 RMK A01 T03670103  RH  021%=      5-min Rain = 0
KMNS 190025Z 18017G22KT 36/10 A2988 RMK A01 T03640102  RH  021%=      5-min Rain = 0
KMNS 190030Z 18016G21KT 36/10 A2988 RMK A01 T03640100  RH  021%=      5-min Rain = 0
KMNS 190035Z 18017KT 36/10 A2988 RMK A01 T03620101  RH  021%=      5-min Rain = 0
KMNS 190040Z 18016G21KT 36/10 A2988 RMK A01 T03600101  RH  022%=      5-min Rain = 0
KMNS 190045Z 18015G20KT 36/10 A2988 RMK A01 T03590101  RH  022%=      5-min Rain = 0
KMNS 190050Z 17015G22KT 36/10 A2988 RMK A01 T03570101  RH  022%=      5-min Rain = 0
KMNS 190055Z 17016G22KT 36/10 A2988 RMK A01 T03560099  RH  022%=      5-min Rain = 0
KMNS 190100Z 17016G21KT 36/10 A2988 RMK A01 T03550100  RH  022%=      5-min Rain = 0
KMNS 190105Z 18015G22KT 35/10 A2988 RMK A01 T03540100  RH  022%=      5-min Rain = 0
KMNS 190110Z 18014G19KT 35/10 A2988 RMK A01 T03510101  RH  023%=      5-min Rain = 0
KMNS 190115Z 17014G19KT 35/10 A2988 RMK A01 T03490101  RH  023%=      5-min Rain = 0
KMNS 190120Z 17013G20KT 35/10 A2988 RMK A01 T03470101  RH  023%=      5-min Rain = 0
KMNS 190125Z 17015G21KT 35/10 A2988 RMK A01 T03450098  RH  023%=      5-min Rain = 0
KMNS 190130Z 17013KT 34/10 A2988 RMK A01 T03430099  RH  023%=      5-min Rain = 0
KMNS 190135Z 17012KT 34/10 A2989 RMK A01 T03400099  RH  024%=      5-min Rain = 0
KMNS 190140Z 17012G17KT 34/10 A2989 RMK A01 T03380099  RH  024%=      5-min Rain = 0
KMNS 190145Z 16012KT 34/10 A2989 RMK A01 T03360099  RH  024%=      5-min Rain = 0
KMNS 190150Z 16011KT 33/10 A2989 RMK A01 T03340100  RH  025%=      5-min Rain = 0
KMNS 190155Z 16011KT 33/10 A2989 RMK A01 T03320100  RH  025%=      5-min Rain = 0
KMNS 190200Z 16011KT 33/10 A2989 RMK A01 T03290102  RH  026%=      5-min Rain = 0
KMNS 190205Z 16011KT 33/10 A2989 RMK A01 T03270104  RH  026%=      5-min Rain = 0
KMNS 190210Z 16011KT 32/11 A2989 RMK A01 T03240106  RH  027%=      5-min Rain = 0
KMNS 190215Z 16010G15KT 32/11 A2989 RMK A01 T03210107  RH  028%=      5-min Rain = 0
KMNS 190220Z 16010G15KT 32/11 A2989 RMK A01 T03190109  RH  028%=      5-min Rain = 0
KMNS 190225Z 16011KT 32/11 A2989 RMK A01 T03180111  RH  029%=      5-min Rain = 0
KMNS 190230Z 16011G16KT 32/11 A299 RMK A01 T03170112  RH  030%=      5-min Rain = 0
KMNS 190235Z 16010KT 32/11 A299 RMK A01 T03150113  RH  030%=      5-min Rain = 0
KMNS 190240Z 16011KT 31/11 A299 RMK A01 T03140113  RH  030%=      5-min Rain = 0
KMNS 190245Z 16011KT 31/11 A299 RMK A01 T03130113  RH  030%=      5-min Rain = 0
KMNS 190250Z 16010KT 31/11 A299 RMK A01 T03110114  RH  031%=      5-min Rain = 0
KMNS 190255Z 16011KT 31/11 A299 RMK A01 T03100114  RH  031%=      5-min Rain = 0
KMNS 190300Z 16010KT 31/11 A299 RMK A01 T03080114  RH  031%=      5-min Rain = 0
KMNS 190305Z 16010KT 31/11 A299 RMK A01 T03070114  RH  032%=      5-min Rain = 0
KMNS 190310Z 16011KT 31/11 A299 RMK A01 T03060114  RH  032%=      5-min Rain = 0
KMNS 190315Z 16010KT 31/12 A2991 RMK A01 T03050115  RH  032%=      5-min Rain = 0
KMNS 190320Z 16011KT 30/12 A2991 RMK A01 T03030115  RH  033%=      5-min Rain = 0
KMNS 190325Z 16010KT 30/12 A2991 RMK A01 T03000115  RH  033%=      5-min Rain = 0
KMNS 190330Z 16010KT 30/12 A2992 RMK A01 T02980115  RH  033%=      5-min Rain = 0
KMNS 190335Z 16011KT 30/12 A2992 RMK A01 T02980115  RH  033%=      5-min Rain = 0
KMNS 190340Z 17010KT 30/12 A2992 RMK A01 T02970115  RH  034%=      5-min Rain = 0
KMNS 190345Z 17011KT 30/12 A2992 RMK A01 T02960115  RH  034%=      5-min Rain = 0
KMNS 190350Z 17011KT 30/12 A2993 RMK A01 T02950115  RH  034%=      5-min Rain = 0
KMNS 190355Z 17011KT 29/12 A2993 RMK A01 T02930116  RH  035%=      5-min Rain = 0
KMNS 190400Z 17010KT 29/12 A2993 RMK A01 T02930116  RH  035%=      5-min Rain = 0
KMNS 190405Z 17012KT 29/12 A2993 RMK A01 T02920117  RH  035%=      5-min Rain = 0
KMNS 190410Z 17014KT 29/12 A2993 RMK A01 T02930117  RH  035%=      5-min Rain = 0
KMNS 190415Z 17014G19KT 29/12 A2993 RMK A01 T02930118  RH  035%=      5-min Rain = 0
KMNS 190420Z 18013KT 29/12 A2993 RMK A01 T02920118  RH  035%=      5-min Rain = 0
KMNS 190425Z 18013KT 29/12 A2994 RMK A01 T02920119  RH  036%=      5-min Rain = 0
KMNS 190430Z 17013KT 29/12 A2994 RMK A01 T02910120  RH  036%=      5-min Rain = 0
KMNS 190435Z 17012KT 29/12 A2994 RMK A01 T02910121  RH  036%=      5-min Rain = 0
KMNS 190440Z 17013KT 29/12 A2994 RMK A01 T02900122  RH  037%=      5-min Rain = 0
KMNS 190445Z 17013KT 29/12 A2994 RMK A01 T02910123  RH  037%=      5-min Rain = 0
KMNS 190450Z 17012KT 29/12 A2994 RMK A01 T02890124  RH  037%=      5-min Rain = 0
KMNS 190455Z 17012KT 29/13 A2994 RMK A01 T02890125  RH  038%=      5-min Rain = 0

Page generated in 0.0089 seconds.